Warning: Javascript must be enabled to use all the features on this page!


Page Loading - Please Wait...

Click to hideNews Bulletins

Peak Streamflow for the Nation

USGS 02448500 NOXUBEE RIVER NR GEIGER, AL

Sumter County, Alabama
Hydrologic Unit Code 03160108
Latitude  32°55'57", Longitude  88°17'52" NAD27
Drainage area 1,097.00  square miles
Gage datum 86.08 feet above NGVD29
Output formats
Table
Graph
Tab-separated file
peakfq (watstore) format
Reselect output format
Water
Year
Date Gage
Height
(feet)
Stream-
flow
(cfs)
1940 1940-07-10 41.303 33,000
1945 1945-02-24 38.703 19,700
1946 1946-02-14 38.913 20,300
1947 1947-01-21 34.503 12,000
1948 1948-02-16 36.003 14,000
1949 1949-01-08 41.603 35,000
1950 1950-01-11 39.303 22,400
1951 1951-03-31 42.703 37,600
1952 1952-03-12 24.403 6,600
1953 1953-05-06 33.603 11,900
1954 1954-04-17 29.463 8,550
1955 1955-04-14 29.103 8,270
1956 1956-04-07 34.423 12,700
1957 1957-04-05 28.723 7,690
1958 1958-05-07 35.803 13,500
1959 1959-02-10 27.403 6,240
1960 1960-03-04 31.603 10,200
1961 1961-02-24 40.333 26,000
1962 1961-12-18 42.633 44,000
1963 1963-03-13 25.753 6,500
1964 1964-03-19 34.633 13,000
1965 1965-02-15 37.273 17,500
1966 1966-04-28 33.453 11,600
1967 1967-08-26 25.323 6,330
1968 1967-12-24 37.703 18,400
1969 1969-04-15 39.833 23,600
1970 1970-03-24 31.622,3 9,900
1971 1971-03-04 33.543 11,500
1972 1972-01-12 38.383 20,000
1973 1973-03-21 38.613 20,500
1974 1974-04-16 37.783 18,600
1975 1975-03-18 39.633 23,100
1976 1976-03-18 37.623 18,200
1977 1977-04-07 40.723 28,000
1978 1978-05-09 30.943 9,260
1979 1979-04-14 48.583 156,000
1980 1980-04-17 39.093 23,400
1981 1981-04-01 30.763 9,130
1982 1982-04-26 33.023 11,100
1983 1983-05-22 41.383 34,400
1984 1983-12-12 34.303 12,600
1985 1985-02-06 32.236 9,880
1986 1986-03-13 26.94 6,770
1987 1987-03-01 35.61 13,500
1988 1988-04-03 25.24 6,070
1989 1989-01-19 34.46 11,600
1990 1990-02-18 39.08 23,300
1991 1991-02-24 40.61 28,500
1992 1992-08-28 29.24 7,940
1993 1993-01-15 37.205 16,0002
1994 1994-01-29 33.64 10,900
1995 1995-04-24 33.18 10,700
1996 1996-01-27 36.04 13,100
1997 1997-04-28 31.23 9,300
1998 1998-01-08 38.89 19,800
1999 1999-02-03 38.69 19,200
2000 2000-04-04 35.75 13,200
2001 2001-03-16 31.24 9,310
2002 2001-12-15 32.82 10,400
2003 2003-02-25 39.49 21,700
2004 2004-02-09 37.98 17,200
2005 2004-12-10 33.89 11,300
2006 2006-03-02 32.16 9,870
2007 2007-01-01 27.83 7,840
2008 2008-02-23 27.00 7,540
2009 2009-01-11 36.11 14,800
2010 2010-03-12 35.29 14,200
2011 2011-03-10 34.11 13,400
2012 2012-03-23 30.79 11,400
2013 2013-01-20 34.762 13,800
2014 2014-04-09 37.10 15,500
2015 2015-01-05 33.37 10,800
2016 2016-03-12 32.49 11,300
2017 2017-04-04 32.29 11,200
2018 2018-03-12 31.97 11,100
2019 2018-12-29 35.50 12,400
2020 2020-02-13 41.23 30,900
?
  Peak Gage-Height Qualification Codes.
?
  Peak Streamflow Qualification Codes.